Terminal Aerodrome Forecast
Issued by NWS

Home | Current Version | Previous Version | Text Only | Print | Product List | Glossary On
Versions: 1 2 3 4 5 6 7 8 9 10 11 12 13 14
000
FTUS44 KCRP 311700
TAFLRD
TAF
KLRD 311727Z 3118/0118 16016G22KT P6SM VCSH BKN020 OVC035
      TEMPO 3118/3122 4SM -SHRA
     FM312300 15012KT P6SM VCSH BKN025 OVC100
      TEMPO 3123/0103 5SM -SHRA OVC020
     FM010700 15009KT P6SM OVC009
     FM011500 25006KT P6SM SCT015 BKN100=

USA.gov is the U.S. government's official web portal to all federal, state and local government web resources and services.